Accueil
METAR-TAF:

METAR-TAF

Aéroports :

Reims, France

Aérodrome de Reims - Prunay

latitude: 49-12-31N, longitude: 004-09-24E, altitude: 95 m

Observation

Le bulletin a été fait il y a 22 minutes, à 10:30 UTC
Vent 8 kt de ouest/sud-ouest, variant entre sud-ouest et ouest
Température 19°C
Humidité 68%
Pression 998 hPa
Visibilité 10 km ou plus
Nuages épars à une hauteur de 2700 ft
Nuages fragmentés à une hauteur de 3600 ft
Nuages fragmentés à une hauteur de 4300 ft

METAR: LFQA 291030Z AUTO 25008KT 220V280 9999 SCT027 BKN036 BKN043 19/13 Q0998

Heure: 12:52 (10:52 UTC)


TAF: absent

Observations et prévisions météorologiques de plus de 4000 aéroports (messages METAR et TAF).

Les stations disponibles sont représentées par des disques jaunes et rouges sur la carte.

Passer la souris dessus pour voir le nom de la station.

Cliquer dessus pour voir les observations et prévisions météorologiques.

Pour changer de carte: cliquez sur les boutons verts avec une croix noire pour zoomer, sur le bouton vert avec un tiret pour effectuer un zoom arrière, ou sur les flèches vertes pour les cartes adjacentes.


METAR-TAF: